sensor_id;sensor_type;location;lat;lon;timestamp;pressure;altitude;pressure_sealevel;temperature;humidity
51293;BME280;37377;45.186;9.778;2024-03-08T08:35:00;101190;;;14.4;57.4
51293;BME280;37377;45.186;9.778;2024-03-08T08:36:00;101190;;;14.4;57.4
51293;BME280;37377;45.186;9.778;2024-03-08T09:28:00;101200;;;15.0;54.3
51293;BME280;37377;45.186;9.778;2024-03-08T09:29:00;101200;;;15.0;54.3
51293;BME280;37377;45.186;9.778;2024-03-08T09:44:00;101200;;;16.1;51.6
51293;BME280;37377;45.186;9.778;2024-03-08T09:45:00;101200;;;16.1;51.6
51293;BME280;37377;45.186;9.778;2024-03-08T09:46:00;101200;;;16.1;51.6
51293;BME280;37377;45.186;9.778;2024-03-08T09:47:00;101200;;;16.1;51.6
51293;BME280;37377;45.186;9.778;2024-03-08T09:50:00;101200;;;16.9;50.0
51293;BME280;37377;45.186;9.778;2024-03-08T09:51:00;101200;;;16.9;50.0
51293;BME280;37377;45.186;9.778;2024-03-08T09:52:00;101200;;;16.9;50.0
51293;BME280;37377;45.186;9.778;2024-03-08T09:53:00;101200;;;16.9;50.0
51293;BME280;37377;45.186;9.778;2024-03-08T09:54:00;101200;;;16.9;50.0
51293;BME280;37377;45.186;9.778;2024-03-08T09:55:00;101200;;;16.0;52.5
51293;BME280;37377;45.186;9.778;2024-03-08T09:56:00;101200;;;15.4;52.5
51293;BME280;37377;45.186;9.778;2024-03-08T09:57:00;101200;;;15.4;52.5
51293;BME280;37377;45.186;9.778;2024-03-08T10:08:00;101190;;;17.1;48.9
51293;BME280;37377;45.186;9.778;2024-03-08T10:09:00;101190;;;17.1;48.9
51293;BME280;37377;45.186;9.778;2024-03-08T10:10:00;101190;;;17.1;48.9
51293;BME280;37377;45.186;9.778;2024-03-08T10:11:00;101190;;;17.1;48.9
51293;BME280;37377;45.186;9.778;2024-03-08T10:13:00;101190;;;16.2;50.6
51293;BME280;37377;45.186;9.778;2024-03-08T10:14:00;101190;;;16.2;50.6
51293;BME280;37377;45.186;9.778;2024-03-08T10:15:00;101190;;;16.2;50.6
51293;BME280;37377;45.186;9.778;2024-03-08T10:16:00;101190;;;16.2;50.6
51293;BME280;37377;45.186;9.778;2024-03-08T10:17:00;101190;;;16.2;50.6
51293;BME280;37377;45.186;9.778;2024-03-08T10:18:00;101190;;;16.2;50.6
51293;BME280;37377;45.186;9.778;2024-03-08T10:19:00;101180;;;15.8;52.7
51293;BME280;37377;45.186;9.778;2024-03-08T10:20:00;101180;;;15.8;52.7
51293;BME280;37377;45.186;9.778;2024-03-08T10:21:02;101180;;;15.8;52.7
51293;BME280;37377;45.186;9.778;2024-03-08T10:22:00;101180;;;15.8;52.7
51293;BME280;37377;45.186;9.778;2024-03-08T10:23:00;101180;;;15.8;52.7
51293;BME280;37377;45.186;9.778;2024-03-08T10:27:00;101170;;;16.1;52.9
51293;BME280;37377;45.186;9.778;2024-03-08T10:28:00;101170;;;16.1;52.9
51293;BME280;37377;45.186;9.778;2024-03-08T10:29:00;101170;;;16.5;50.2
51293;BME280;37377;45.186;9.778;2024-03-08T10:30:00;101170;;;16.5;50.2
51293;BME280;37377;45.186;9.778;2024-03-08T10:31:00;101170;;;16.5;50.2
51293;BME280;37377;45.186;9.778;2024-03-08T10:32:00;101170;;;16.5;50.2
51293;BME280;37377;45.186;9.778;2024-03-08T10:33:00;101170;;;16.0;53.3
51293;BME280;37377;45.186;9.778;2024-03-08T10:34:00;101170;;;16.0;53.3
51293;BME280;37377;45.186;9.778;2024-03-08T10:35:00;101170;;;16.0;53.3
51293;BME280;37377;45.186;9.778;2024-03-08T10:36:00;101170;;;16.0;53.3
51293;BME280;37377;45.186;9.778;2024-03-08T10:37:03;101170;;;16.0;53.3
51293;BME280;37377;45.186;9.778;2024-03-08T11:01:00;101160;;;16.0;52.8
51293;BME280;37377;45.186;9.778;2024-03-08T11:02:00;101160;;;16.0;52.8
51293;BME280;37377;45.186;9.778;2024-03-08T11:03:00;101160;;;16.0;52.8
51293;BME280;37377;45.186;9.778;2024-03-08T11:04:00;101160;;;16.0;52.8
51293;BME280;37377;45.186;9.778;2024-03-08T11:06:00;101170;;;15.6;53.3
51293;BME280;37377;45.186;9.778;2024-03-08T11:07:01;101170;;;15.6;53.3
51293;BME280;37377;45.186;9.778;2024-03-08T11:08:00;101170;;;15.6;53.3
51293;BME280;37377;45.186;9.778;2024-03-08T11:09:00;101170;;;15.6;53.3
51293;BME280;37377;45.186;9.778;2024-03-08T11:10:02;101170;;;15.6;53.3
51293;BME280;37377;45.186;9.778;2024-03-08T11:11:00;101160;;;15.9;52.5
51293;BME280;37377;45.186;9.778;2024-03-08T11:12:18;101160;;;15.9;52.5
51293;BME280;37377;45.186;9.778;2024-03-08T11:13:00;101160;;;14.7;55.7
51293;BME280;37377;45.186;9.778;2024-03-08T11:14:00;101160;;;14.7;55.7
51293;BME280;37377;45.186;9.778;2024-03-08T11:15:00;101160;;;14.7;55.7
51293;BME280;37377;45.186;9.778;2024-03-08T11:16:00;101160;;;14.7;55.7
51293;BME280;37377;45.186;9.778;2024-03-08T11:17:00;101150;;;15.0;55.9
51293;BME280;37377;45.186;9.778;2024-03-08T11:18:00;101150;;;15.0;55.9
51293;BME280;37377;45.186;9.778;2024-03-08T11:19:00;101150;;;15.0;55.9
51293;BME280;37377;45.186;9.778;2024-03-08T11:20:00;101150;;;15.0;55.9
51293;BME280;37377;45.186;9.778;2024-03-08T11:21:03;101150;;;15.0;55.9
51293;BME280;37377;45.186;9.778;2024-03-08T11:22:00;101150;;;15.0;55.9
51293;BME280;37377;45.186;9.778;2024-03-08T11:23:00;101150;;;15.0;55.9
51293;BME280;37377;45.186;9.778;2024-03-08T11:25:01;101150;;;15.0;55.9
51293;BME280;37377;45.186;9.778;2024-03-08T11:26:00;101150;;;15.0;55.9
51293;BME280;37377;45.186;9.778;2024-03-08T11:30:01;101140;;;14.3;57.9
51293;BME280;37377;45.186;9.778;2024-03-08T11:32:06;101140;;;14.3;57.9
51293;BME280;37377;45.186;9.778;2024-03-08T11:33:01;101140;;;14.3;57.9
51293;BME280;37377;45.186;9.778;2024-03-08T11:34:00;101140;;;14.3;57.9
51293;BME280;37377;45.186;9.778;2024-03-08T11:35:00;101140;;;14.3;57.9
51293;BME280;37377;45.186;9.778;2024-03-08T17:57:00;100960;;;13.2;56.5
51293;BME280;37377;45.186;9.778;2024-03-08T17:58:00;100960;;;13.2;56.5
51293;BME280;37377;45.186;9.778;2024-03-08T18:19:00;100970;;;13.6;54.6
51293;BME280;37377;45.186;9.778;2024-03-08T18:20:00;100970;;;13.6;54.6
